sensor_id;sensor_type;location;lat;lon;timestamp;pressure;altitude;pressure_sealevel;temperature
40624;BMP280;26325;48.594;11.650;2023-06-04T00:01:35;96617.38;;;12.30
40624;BMP280;26325;48.594;11.650;2023-06-04T00:04:01;96611.03;;;12.11
40624;BMP280;26325;48.594;11.650;2023-06-04T00:06:26;96617.19;;;12.05
40624;BMP280;26325;48.594;11.650;2023-06-04T00:08:56;96619.53;;;12.07
40624;BMP280;26325;48.594;11.650;2023-06-04T00:11:24;96605.56;;;12.08
40624;BMP280;26325;48.594;11.650;2023-06-04T00:13:51;96617.97;;;12.06
40624;BMP280;26325;48.594;11.650;2023-06-04T00:16:17;96619.19;;;11.94
40624;BMP280;26325;48.594;11.650;2023-06-04T00:18:42;96612.91;;;11.90
40624;BMP280;26325;48.594;11.650;2023-06-04T00:21:08;96616.78;;;11.87
40624;BMP280;26325;48.594;11.650;2023-06-04T00:23:33;96609.31;;;11.91
40624;BMP280;26325;48.594;11.650;2023-06-04T00:25:59;96612.34;;;11.83
40624;BMP280;26325;48.594;11.650;2023-06-04T00:28:25;96612.56;;;11.77
40624;BMP280;26325;48.594;11.650;2023-06-04T00:30:50;96615.88;;;11.72
40624;BMP280;26325;48.594;11.650;2023-06-04T00:33:16;96615.19;;;11.56
40624;BMP280;26325;48.594;11.650;2023-06-04T00:35:41;96608.69;;;11.53
40624;BMP280;26325;48.594;11.650;2023-06-04T00:38:07;96606.09;;;11.48
40624;BMP280;26325;48.594;11.650;2023-06-04T00:40:32;96597.78;;;11.46
40624;BMP280;26325;48.594;11.650;2023-06-04T00:42:58;96611.22;;;11.43
40624;BMP280;26325;48.594;11.650;2023-06-04T00:45:23;96607.00;;;11.38
40624;BMP280;26325;48.594;11.650;2023-06-04T00:47:52;96607.78;;;11.38
40624;BMP280;26325;48.594;11.650;2023-06-04T00:50:21;96612.69;;;11.35
40624;BMP280;26325;48.594;11.650;2023-06-04T00:52:48;96605.94;;;11.34
40624;BMP280;26325;48.594;11.650;2023-06-04T00:55:14;96620.00;;;11.22
40624;BMP280;26325;48.594;11.650;2023-06-04T00:57:43;96611.44;;;11.21
40624;BMP280;26325;48.594;11.650;2023-06-04T01:00:09;96621.78;;;11.21
40624;BMP280;26325;48.594;11.650;2023-06-04T01:02:38;96617.34;;;11.17
40624;BMP280;26325;48.594;11.650;2023-06-04T01:05:28;96618.19;;;11.01
40624;BMP280;26325;48.594;11.650;2023-06-04T01:07:57;96627.88;;;10.89
40624;BMP280;26325;48.594;11.650;2023-06-04T01:10:22;96621.69;;;10.69
40624;BMP280;26325;48.594;11.650;2023-06-04T01:12:51;96618.84;;;10.71
40624;BMP280;26325;48.594;11.650;2023-06-04T01:15:16;96625.22;;;10.64
40624;BMP280;26325;48.594;11.650;2023-06-04T01:17:44;96626.84;;;10.69
40624;BMP280;26325;48.594;11.650;2023-06-04T01:25:34;96628.59;;;10.64
40624;BMP280;26325;48.594;11.650;2023-06-04T01:28:01;96626.94;;;10.58
40624;BMP280;26325;48.594;11.650;2023-06-04T01:30:33;96629.78;;;10.57
40624;BMP280;26325;48.594;11.650;2023-06-04T01:33:00;96628.00;;;10.41
40624;BMP280;26325;48.594;11.650;2023-06-04T01:35:28;96630.56;;;10.41
40624;BMP280;26325;48.594;11.650;2023-06-04T01:37:54;96635.34;;;10.49
40624;BMP280;26325;48.594;11.650;2023-06-04T01:40:21;96632.41;;;10.41
40624;BMP280;26325;48.594;11.650;2023-06-04T01:42:46;96632.53;;;10.34
40624;BMP280;26325;48.594;11.650;2023-06-04T01:45:12;96637.25;;;10.37
40624;BMP280;26325;48.594;11.650;2023-06-04T01:47:37;96646.94;;;10.47
40624;BMP280;26325;48.594;11.650;2023-06-04T01:50:06;96633.66;;;10.38
40624;BMP280;26325;48.594;11.650;2023-06-04T01:52:39;96634.44;;;10.39
40624;BMP280;26325;48.594;11.650;2023-06-04T01:55:07;96635.63;;;10.31
40624;BMP280;26325;48.594;11.650;2023-06-04T01:57:35;96631.09;;;10.22
40624;BMP280;26325;48.594;11.650;2023-06-04T02:00:08;96643.03;;;10.28
40624;BMP280;26325;48.594;11.650;2023-06-04T02:02:36;96637.16;;;10.32
40624;BMP280;26325;48.594;11.650;2023-06-04T02:05:05;96641.31;;;10.33
40624;BMP280;26325;48.594;11.650;2023-06-04T02:07:38;96638.25;;;10.36
40624;BMP280;26325;48.594;11.650;2023-06-04T02:10:07;96632.09;;;10.21
40624;BMP280;26325;48.594;11.650;2023-06-04T02:12:37;96634.91;;;10.20
40624;BMP280;26325;48.594;11.650;2023-06-04T02:15:04;96632.28;;;10.15
40624;BMP280;26325;48.594;11.650;2023-06-04T02:17:30;96637.66;;;10.13
40624;BMP280;26325;48.594;11.650;2023-06-04T02:20:01;96640.53;;;10.17
40624;BMP280;26325;48.594;11.650;2023-06-04T02:22:29;96636.94;;;10.18
40624;BMP280;26325;48.594;11.650;2023-06-04T02:24:59;96642.59;;;10.15
40624;BMP280;26325;48.594;11.650;2023-06-04T02:27:25;96643.13;;;10.01
40624;BMP280;26325;48.594;11.650;2023-06-04T02:29:50;96643.50;;;9.93
40624;BMP280;26325;48.594;11.650;2023-06-04T02:32:16;96652.59;;;9.95
40624;BMP280;26325;48.594;11.650;2023-06-04T02:34:41;96642.00;;;9.81
40624;BMP280;26325;48.594;11.650;2023-06-04T02:37:07;96646.16;;;9.82
40624;BMP280;26325;48.594;11.650;2023-06-04T02:39:32;96650.19;;;9.78
40624;BMP280;26325;48.594;11.650;2023-06-04T02:41:58;96647.94;;;9.81
40624;BMP280;26325;48.594;11.650;2023-06-04T02:44:23;96645.03;;;9.78
40624;BMP280;26325;48.594;11.650;2023-06-04T02:46:49;96652.22;;;9.76
40624;BMP280;26325;48.594;11.650;2023-06-04T02:49:19;96657.47;;;9.81
40624;BMP280;26325;48.594;11.650;2023-06-04T02:51:45;96651.88;;;9.84
40624;BMP280;26325;48.594;11.650;2023-06-04T02:54:10;96643.94;;;9.74
40624;BMP280;26325;48.594;11.650;2023-06-04T02:56:36;96638.38;;;9.66
40624;BMP280;26325;48.594;11.650;2023-06-04T02:59:03;96646.34;;;9.64
40624;BMP280;26325;48.594;11.650;2023-06-04T03:01:31;96643.63;;;9.70
40624;BMP280;26325;48.594;11.650;2023-06-04T03:03:57;96645.88;;;9.67
40624;BMP280;26325;48.594;11.650;2023-06-04T03:06:23;96643.84;;;9.69
40624;BMP280;26325;48.594;11.650;2023-06-04T03:08:50;96651.25;;;9.66
40624;BMP280;26325;48.594;11.650;2023-06-04T03:11:20;96654.56;;;9.61
40624;BMP280;26325;48.594;11.650;2023-06-04T03:13:49;96652.97;;;9.60
40624;BMP280;26325;48.594;11.650;2023-06-04T03:16:15;96664.09;;;9.61
40624;BMP280;26325;48.594;11.650;2023-06-04T03:18:41;96663.13;;;9.51
40624;BMP280;26325;48.594;11.650;2023-06-04T03:21:07;96664.41;;;9.37
40624;BMP280;26325;48.594;11.650;2023-06-04T03:23:34;96667.78;;;9.37
40624;BMP280;26325;48.594;11.650;2023-06-04T03:26:04;96663.72;;;9.41
40624;BMP280;26325;48.594;11.650;2023-06-04T03:28:32;96669.31;;;9.38
40624;BMP280;26325;48.594;11.650;2023-06-04T03:30:58;96671.38;;;9.36
40624;BMP280;26325;48.594;11.650;2023-06-04T03:33:24;96675.41;;;9.32
40624;BMP280;26325;48.594;11.650;2023-06-04T03:35:52;96673.88;;;9.20
40624;BMP280;26325;48.594;11.650;2023-06-04T03:38:19;96681.28;;;9.17
40624;BMP280;26325;48.594;11.650;2023-06-04T03:40:45;96666.25;;;9.25
40624;BMP280;26325;48.594;11.650;2023-06-04T03:43:11;96672.25;;;9.31
40624;BMP280;26325;48.594;11.650;2023-06-04T03:45:37;96675.31;;;9.28
40624;BMP280;26325;48.594;11.650;2023-06-04T03:48:03;96682.91;;;9.34
40624;BMP280;26325;48.594;11.650;2023-06-04T03:50:28;96678.53;;;9.34
40624;BMP280;26325;48.594;11.650;2023-06-04T03:52:54;96691.06;;;9.42
40624;BMP280;26325;48.594;11.650;2023-06-04T03:55:19;96690.28;;;9.42
40624;BMP280;26325;48.594;11.650;2023-06-04T03:57:45;96694.63;;;9.52
40624;BMP280;26325;48.594;11.650;2023-06-04T04:00:12;96694.28;;;9.49
40624;BMP280;26325;48.594;11.650;2023-06-04T04:02:40;96695.94;;;9.55
40624;BMP280;26325;48.594;11.650;2023-06-04T04:05:06;96695.94;;;9.55
40624;BMP280;26325;48.594;11.650;2023-06-04T04:07:35;96694.25;;;9.60
40624;BMP280;26325;48.594;11.650;2023-06-04T04:10:01;96689.50;;;9.69
40624;BMP280;26325;48.594;11.650;2023-06-04T04:12:29;96683.31;;;9.70
40624;BMP280;26325;48.594;11.650;2023-06-04T04:14:55;96689.47;;;9.80
40624;BMP280;26325;48.594;11.650;2023-06-04T04:17:20;96689.00;;;9.83
40624;BMP280;26325;48.594;11.650;2023-06-04T04:19:46;96685.41;;;9.84
40624;BMP280;26325;48.594;11.650;2023-06-04T04:22:12;96694.25;;;9.88
40624;BMP280;26325;48.594;11.650;2023-06-04T04:24:38;96689.78;;;9.99
40624;BMP280;26325;48.594;11.650;2023-06-04T04:27:04;96690.53;;;10.11
40624;BMP280;26325;48.594;11.650;2023-06-04T04:29:30;96690.44;;;10.22
40624;BMP280;26325;48.594;11.650;2023-06-04T04:32:01;96694.22;;;10.31
40624;BMP280;26325;48.594;11.650;2023-06-04T04:34:34;96689.03;;;10.47
40624;BMP280;26325;48.594;11.650;2023-06-04T04:37:03;96690.09;;;10.51
40624;BMP280;26325;48.594;11.650;2023-06-04T04:39:29;96700.72;;;10.70
40624;BMP280;26325;48.594;11.650;2023-06-04T04:41:56;96696.03;;;10.67
40624;BMP280;26325;48.594;11.650;2023-06-04T04:44:22;96704.53;;;10.84
40624;BMP280;26325;48.594;11.650;2023-06-04T04:46:48;96701.78;;;10.90
40624;BMP280;26325;48.594;11.650;2023-06-04T04:49:14;96708.53;;;11.12
40624;BMP280;26325;48.594;11.650;2023-06-04T04:51:42;96706.66;;;11.29
40624;BMP280;26325;48.594;11.650;2023-06-04T04:54:07;96711.25;;;11.22
40624;BMP280;26325;48.594;11.650;2023-06-04T04:56:34;96713.56;;;11.40
40624;BMP280;26325;48.594;11.650;2023-06-04T04:59:02;96712.53;;;11.41
40624;BMP280;26325;48.594;11.650;2023-06-04T05:01:27;96708.72;;;11.69
40624;BMP280;26325;48.594;11.650;2023-06-04T05:03:53;96710.34;;;11.75
40624;BMP280;26325;48.594;11.650;2023-06-04T05:06:18;96718.06;;;11.70
40624;BMP280;26325;48.594;11.650;2023-06-04T05:11:10;96726.84;;;12.20
40624;BMP280;26325;48.594;11.650;2023-06-04T05:13:36;96727.63;;;12.52
40624;BMP280;26325;48.594;11.650;2023-06-04T05:16:02;96730.22;;;12.56
40624;BMP280;26325;48.594;11.650;2023-06-04T05:18:33;96727.88;;;12.81
40624;BMP280;26325;48.594;11.650;2023-06-04T05:20:59;96722.28;;;13.03
40624;BMP280;26325;48.594;11.650;2023-06-04T05:23:28;96733.03;;;13.26
40624;BMP280;26325;48.594;11.650;2023-06-04T05:25:55;96730.78;;;13.44
40624;BMP280;26325;48.594;11.650;2023-06-04T05:28:21;96731.16;;;13.67
40624;BMP280;26325;48.594;11.650;2023-06-04T05:30:51;96730.47;;;13.96
40624;BMP280;26325;48.594;11.650;2023-06-04T05:33:17;96725.03;;;14.12
40624;BMP280;26325;48.594;11.650;2023-06-04T05:35:48;96729.72;;;14.25
40624;BMP280;26325;48.594;11.650;2023-06-04T05:38:14;96730.53;;;14.45
40624;BMP280;26325;48.594;11.650;2023-06-04T05:40:43;96720.13;;;14.74
40624;BMP280;26325;48.594;11.650;2023-06-04T05:43:08;96723.72;;;14.92
40624;BMP280;26325;48.594;11.650;2023-06-04T05:45:34;96729.19;;;15.10
40624;BMP280;26325;48.594;11.650;2023-06-04T05:48:02;96732.53;;;15.16
40624;BMP280;26325;48.594;11.650;2023-06-04T05:50:30;96728.56;;;15.47
40624;BMP280;26325;48.594;11.650;2023-06-04T05:52:58;96732.88;;;15.71
40624;BMP280;26325;48.594;11.650;2023-06-04T05:55:24;96724.16;;;15.95
40624;BMP280;26325;48.594;11.650;2023-06-04T05:57:50;96727.00;;;16.03
40624;BMP280;26325;48.594;11.650;2023-06-04T06:00:18;96739.72;;;16.10
40624;BMP280;26325;48.594;11.650;2023-06-04T06:02:44;96729.75;;;16.21
40624;BMP280;26325;48.594;11.650;2023-06-04T06:05:11;96739.72;;;16.10
40624;BMP280;26325;48.594;11.650;2023-06-04T06:07:36;96748.81;;;16.17
40624;BMP280;26325;48.594;11.650;2023-06-04T06:10:03;96737.13;;;16.47
40624;BMP280;26325;48.594;11.650;2023-06-04T06:12:29;96743.44;;;16.41
40624;BMP280;26325;48.594;11.650;2023-06-04T06:14:54;96746.81;;;16.75
40624;BMP280;26325;48.594;11.650;2023-06-04T06:17:20;96750.13;;;16.85
40624;BMP280;26325;48.594;11.650;2023-06-04T06:19:46;96736.75;;;16.91
40624;BMP280;26325;48.594;11.650;2023-06-04T06:22:11;96752.03;;;17.30
40624;BMP280;26325;48.594;11.650;2023-06-04T06:24:39;96753.91;;;17.53
40624;BMP280;26325;48.594;11.650;2023-06-04T06:27:05;96742.91;;;17.73
40624;BMP280;26325;48.594;11.650;2023-06-04T06:29:31;96740.47;;;17.82
40624;BMP280;26325;48.594;11.650;2023-06-04T06:31:56;96740.00;;;17.80
40624;BMP280;26325;48.594;11.650;2023-06-04T06:34:23;96748.78;;;17.89
40624;BMP280;26325;48.594;11.650;2023-06-04T06:36:49;96755.25;;;17.91
40624;BMP280;26325;48.594;11.650;2023-06-04T06:39:15;96751.09;;;17.90
40624;BMP280;26325;48.594;11.650;2023-06-04T06:41:41;96757.41;;;18.07
40624;BMP280;26325;48.594;11.650;2023-06-04T06:44:07;96757.06;;;18.13
40624;BMP280;26325;48.594;11.650;2023-06-04T06:46:33;96763.41;;;18.26
40624;BMP280;26325;48.594;11.650;2023-06-04T06:48:58;96762.06;;;18.10
40624;BMP280;26325;48.594;11.650;2023-06-04T06:51:24;96767.03;;;18.12
40624;BMP280;26325;48.594;11.650;2023-06-04T06:53:52;96762.88;;;18.29
40624;BMP280;26325;48.594;11.650;2023-06-04T06:56:17;96762.75;;;18.69
40624;BMP280;26325;48.594;11.650;2023-06-04T06:58:44;96765.47;;;18.65
40624;BMP280;26325;48.594;11.650;2023-06-04T07:01:13;96758.81;;;18.72
40624;BMP280;26325;48.594;11.650;2023-06-04T07:03:39;96763.81;;;18.87
40624;BMP280;26325;48.594;11.650;2023-06-04T07:06:08;96758.75;;;19.21
40624;BMP280;26325;48.594;11.650;2023-06-04T07:08:34;96759.63;;;19.61
40624;BMP280;26325;48.594;11.650;2023-06-04T07:11:03;96768.34;;;20.44
40624;BMP280;26325;48.594;11.650;2023-06-04T07:13:29;96754.94;;;20.32
40624;BMP280;26325;48.594;11.650;2023-06-04T07:16:00;96766.94;;;20.38
40624;BMP280;26325;48.594;11.650;2023-06-04T07:18:26;96775.97;;;20.19
40624;BMP280;26325;48.594;11.650;2023-06-04T07:20:51;96765.81;;;19.91
40624;BMP280;26325;48.594;11.650;2023-06-04T07:23:18;96769.13;;;20.31
40624;BMP280;26325;48.594;11.650;2023-06-04T07:25:44;96758.81;;;20.91
40624;BMP280;26325;48.594;11.650;2023-06-04T07:28:10;96760.81;;;20.85
40624;BMP280;26325;48.594;11.650;2023-06-04T07:30:35;96759.19;;;20.98
40624;BMP280;26325;48.594;11.650;2023-06-04T07:33:02;96763.38;;;20.99
40624;BMP280;26325;48.594;11.650;2023-06-04T07:35:27;96765.31;;;21.74
40624;BMP280;26325;48.594;11.650;2023-06-04T07:37:53;96757.03;;;21.89
40624;BMP280;26325;48.594;11.650;2023-06-04T07:40:19;96759.50;;;21.47
40624;BMP280;26325;48.594;11.650;2023-06-04T07:42:46;96749.69;;;22.32
40624;BMP280;26325;48.594;11.650;2023-06-04T07:45:15;96751.09;;;22.38
40624;BMP280;26325;48.594;11.650;2023-06-04T07:47:43;96740.00;;;23.44
40624;BMP280;26325;48.594;11.650;2023-06-04T07:50:09;96741.19;;;24.19
40624;BMP280;26325;48.594;11.650;2023-06-04T07:52:35;96747.38;;;24.23
40624;BMP280;26325;48.594;11.650;2023-06-04T07:55:04;96745.34;;;24.48
40624;BMP280;26325;48.594;11.650;2023-06-04T07:57:30;96749.00;;;23.43
40624;BMP280;26325;48.594;11.650;2023-06-04T07:59:57;96744.63;;;23.83
40624;BMP280;26325;48.594;11.650;2023-06-04T08:02:23;96752.00;;;24.06
40624;BMP280;26325;48.594;11.650;2023-06-04T08:04:49;96750.97;;;23.54
40624;BMP280;26325;48.594;11.650;2023-06-04T08:07:15;96746.44;;;25.19
40624;BMP280;26325;48.594;11.650;2023-06-04T08:09:40;96759.03;;;23.86
40624;BMP280;26325;48.594;11.650;2023-06-04T08:12:07;96755.19;;;23.47
40624;BMP280;26325;48.594;11.650;2023-06-04T08:14:32;96758.84;;;23.62
40624;BMP280;26325;48.594;11.650;2023-06-04T08:16:58;96756.47;;;24.94
40624;BMP280;26325;48.594;11.650;2023-06-04T08:19:23;96761.47;;;24.27
40624;BMP280;26325;48.594;11.650;2023-06-04T08:21:50;96749.25;;;25.14
40624;BMP280;26325;48.594;11.650;2023-06-04T08:24:16;96748.19;;;26.17
40624;BMP280;26325;48.594;11.650;2023-06-04T08:26:41;96755.84;;;24.77
40624;BMP280;26325;48.594;11.650;2023-06-04T08:29:07;96752.84;;;26.08
40624;BMP280;26325;48.594;11.650;2023-06-04T08:31:32;96754.31;;;25.39
40624;BMP280;26325;48.594;11.650;2023-06-04T08:33:58;96746.00;;;23.89
40624;BMP280;26325;48.594;11.650;2023-06-04T08:36:24;96757.00;;;24.67
40624;BMP280;26325;48.594;11.650;2023-06-04T08:38:51;96741.63;;;25.01
40624;BMP280;26325;48.594;11.650;2023-06-04T08:41:34;96756.72;;;25.01
40624;BMP280;26325;48.594;11.650;2023-06-04T08:44:05;96757.63;;;26.65
40624;BMP280;26325;48.594;11.650;2023-06-04T08:46:38;96749.97;;;27.86
40624;BMP280;26325;48.594;11.650;2023-06-04T08:49:11;96750.03;;;28.04
40624;BMP280;26325;48.594;11.650;2023-06-04T08:51:40;96746.97;;;28.69
40624;BMP280;26325;48.594;11.650;2023-06-04T08:54:07;96745.31;;;29.58
40624;BMP280;26325;48.594;11.650;2023-06-04T08:56:35;96742.94;;;30.22
40624;BMP280;26325;48.594;11.650;2023-06-04T08:59:07;96739.31;;;30.87
40624;BMP280;26325;48.594;11.650;2023-06-04T09:01:34;96750.84;;;30.95
40624;BMP280;26325;48.594;11.650;2023-06-04T09:04:05;96755.72;;;29.66
40624;BMP280;26325;48.594;11.650;2023-06-04T09:06:32;96749.03;;;30.44
40624;BMP280;26325;48.594;11.650;2023-06-04T09:09:01;96743.53;;;31.24
40624;BMP280;26325;48.594;11.650;2023-06-04T09:11:59;96740.75;;;30.27
40624;BMP280;26325;48.594;11.650;2023-06-04T09:14:26;96753.56;;;30.19
40624;BMP280;26325;48.594;11.650;2023-06-04T09:16:53;96757.25;;;29.67
40624;BMP280;26325;48.594;11.650;2023-06-04T09:19:21;96736.72;;;30.65
40624;BMP280;26325;48.594;11.650;2023-06-04T09:24:14;96740.13;;;31.59
40624;BMP280;26325;48.594;11.650;2023-06-04T09:26:40;96724.66;;;31.78
40624;BMP280;26325;48.594;11.650;2023-06-04T09:29:08;96742.94;;;29.75
40624;BMP280;26325;48.594;11.650;2023-06-04T09:31:34;96750.84;;;28.57
40624;BMP280;26325;48.594;11.650;2023-06-04T09:34:03;96744.16;;;29.18
40624;BMP280;26325;48.594;11.650;2023-06-04T09:36:33;96735.44;;;30.27
40624;BMP280;26325;48.594;11.650;2023-06-04T09:39:14;96733.84;;;30.23
40624;BMP280;26325;48.594;11.650;2023-06-04T09:41:40;96743.34;;;31.07
40624;BMP280;26325;48.594;11.650;2023-06-04T09:44:06;96736.81;;;31.01
40624;BMP280;26325;48.594;11.650;2023-06-04T09:46:36;96740.06;;;31.52
40624;BMP280;26325;48.594;11.650;2023-06-04T09:49:04;96732.47;;;31.54
40624;BMP280;26325;48.594;11.650;2023-06-04T09:51:31;96736.75;;;32.08
40624;BMP280;26325;48.594;11.650;2023-06-04T09:54:00;96723.41;;;32.67
40624;BMP280;26325;48.594;11.650;2023-06-04T09:56:27;96733.03;;;30.73
40624;BMP280;26325;48.594;11.650;2023-06-04T09:58:58;96736.50;;;31.41
40624;BMP280;26325;48.594;11.650;2023-06-04T10:01:29;96739.28;;;31.52
40624;BMP280;26325;48.594;11.650;2023-06-04T10:04:02;96723.44;;;32.15
40624;BMP280;26325;48.594;11.650;2023-06-04T10:06:33;96721.16;;;32.79
40624;BMP280;26325;48.594;11.650;2023-06-04T10:09:03;96720.97;;;33.32
40624;BMP280;26325;48.594;11.650;2023-06-04T10:11:40;96714.16;;;32.54
40624;BMP280;26325;48.594;11.650;2023-06-04T10:14:21;96731.88;;;32.16
40624;BMP280;26325;48.594;11.650;2023-06-04T10:16:51;96727.13;;;31.54
40624;BMP280;26325;48.594;11.650;2023-06-04T10:19:18;96738.31;;;32.09
40624;BMP280;26325;48.594;11.650;2023-06-04T10:21:44;96735.56;;;32.61
40624;BMP280;26325;48.594;11.650;2023-06-04T10:24:12;96746.28;;;32.58
40624;BMP280;26325;48.594;11.650;2023-06-04T10:26:40;96715.28;;;33.50
40624;BMP280;26325;48.594;11.650;2023-06-04T10:29:07;96727.75;;;32.29
40624;BMP280;26325;48.594;11.650;2023-06-04T10:31:36;96709.63;;;32.02
40624;BMP280;26325;48.594;11.650;2023-06-04T10:34:02;96735.00;;;32.98
40624;BMP280;26325;48.594;11.650;2023-06-04T10:36:28;96708.88;;;32.05
40624;BMP280;26325;48.594;11.650;2023-06-04T10:38:55;96718.25;;;33.15
40624;BMP280;26325;48.594;11.650;2023-06-04T10:41:22;96732.63;;;31.71
40624;BMP280;26325;48.594;11.650;2023-06-04T10:43:51;96715.97;;;30.49
40624;BMP280;26325;48.594;11.650;2023-06-04T10:46:19;96729.69;;;30.00
40624;BMP280;26325;48.594;11.650;2023-06-04T10:48:53;96740.06;;;27.41
40624;BMP280;26325;48.594;11.650;2023-06-04T10:51:33;96718.66;;;28.95
40624;BMP280;26325;48.594;11.650;2023-06-04T10:54:00;96709.31;;;30.65
40624;BMP280;26325;48.594;11.650;2023-06-04T10:56:35;96723.53;;;30.47
40624;BMP280;26325;48.594;11.650;2023-06-04T10:59:16;96716.91;;;30.09
40624;BMP280;26325;48.594;11.650;2023-06-04T11:01:42;96724.34;;;29.34
40624;BMP280;26325;48.594;11.650;2023-06-04T11:04:19;96716.22;;;29.68
40624;BMP280;26325;48.594;11.650;2023-06-04T11:06:45;96727.03;;;28.60
40624;BMP280;26325;48.594;11.650;2023-06-04T11:09:14;96718.09;;;29.89
40624;BMP280;26325;48.594;11.650;2023-06-04T11:11:59;96710.53;;;30.17
40624;BMP280;26325;48.594;11.650;2023-06-04T11:14:25;96694.53;;;31.77
40624;BMP280;26325;48.594;11.650;2023-06-04T11:16:50;96698.34;;;31.38
40624;BMP280;26325;48.594;11.650;2023-06-04T11:21:41;96704.78;;;30.15
40624;BMP280;26325;48.594;11.650;2023-06-04T11:24:07;96709.94;;;29.57
40624;BMP280;26325;48.594;11.650;2023-06-04T11:26:34;96710.91;;;30.69
40624;BMP280;26325;48.594;11.650;2023-06-04T11:29:05;96707.78;;;31.28
40624;BMP280;26325;48.594;11.650;2023-06-04T11:31:44;96703.03;;;31.90
40624;BMP280;26325;48.594;11.650;2023-06-04T11:34:10;96706.66;;;32.77
40624;BMP280;26325;48.594;11.650;2023-06-04T11:36:39;96689.94;;;32.93
40624;BMP280;26325;48.594;11.650;2023-06-04T11:39:05;96689.25;;;33.27
40624;BMP280;26325;48.594;11.650;2023-06-04T11:41:35;96695.72;;;33.23
40624;BMP280;26325;48.594;11.650;2023-06-04T11:44:04;96694.97;;;33.19
40624;BMP280;26325;48.594;11.650;2023-06-04T11:46:35;96705.28;;;33.20
40624;BMP280;26325;48.594;11.650;2023-06-04T11:49:05;96684.72;;;33.79
40624;BMP280;26325;48.594;11.650;2023-06-04T11:51:32;96669.25;;;32.91
40624;BMP280;26325;48.594;11.650;2023-06-04T11:53:58;96682.38;;;33.33
40624;BMP280;26325;48.594;11.650;2023-06-04T11:56:24;96699.78;;;32.83
40624;BMP280;26325;48.594;11.650;2023-06-04T11:58:57;96685.44;;;33.28
40624;BMP280;26325;48.594;11.650;2023-06-04T12:01:23;96690.81;;;33.55
40624;BMP280;26325;48.594;11.650;2023-06-04T12:03:53;96678.19;;;33.42
40624;BMP280;26325;48.594;11.650;2023-06-04T12:08:54;96683.69;;;32.69
40624;BMP280;26325;48.594;11.650;2023-06-04T12:13:54;96662.81;;;32.98
40624;BMP280;26325;48.594;11.650;2023-06-04T12:16:20;96668.53;;;32.93
40624;BMP280;26325;48.594;11.650;2023-06-04T12:18:46;96665.59;;;33.53
40624;BMP280;26325;48.594;11.650;2023-06-04T12:21:24;96661.28;;;34.34
40624;BMP280;26325;48.594;11.650;2023-06-04T12:24:12;96655.22;;;33.34
40624;BMP280;26325;48.594;11.650;2023-06-04T12:26:42;96688.69;;;32.77
40624;BMP280;26325;48.594;11.650;2023-06-04T12:29:16;96667.38;;;31.69
40624;BMP280;26325;48.594;11.650;2023-06-04T12:31:45;96681.34;;;31.95
40624;BMP280;26325;48.594;11.650;2023-06-04T12:34:14;96689.69;;;31.90
40624;BMP280;26325;48.594;11.650;2023-06-04T12:36:39;96669.28;;;30.33
40624;BMP280;26325;48.594;11.650;2023-06-04T12:39:06;96666.59;;;30.04
40624;BMP280;26325;48.594;11.650;2023-06-04T12:41:33;96657.44;;;31.62
40624;BMP280;26325;48.594;11.650;2023-06-04T12:44:00;96648.50;;;32.50
40624;BMP280;26325;48.594;11.650;2023-06-04T12:46:26;96647.22;;;33.65
40624;BMP280;26325;48.594;11.650;2023-06-04T12:48:54;96654.88;;;33.60
40624;BMP280;26325;48.594;11.650;2023-06-04T12:51:20;96648.56;;;34.72
40624;BMP280;26325;48.594;11.650;2023-06-04T12:53:49;96660.16;;;34.28
40624;BMP280;26325;48.594;11.650;2023-06-04T12:56:15;96647.25;;;33.51
40624;BMP280;26325;48.594;11.650;2023-06-04T12:58:41;96658.16;;;32.82
40624;BMP280;26325;48.594;11.650;2023-06-04T13:01:07;96654.28;;;31.15
40624;BMP280;26325;48.594;11.650;2023-06-04T13:03:37;96681.81;;;31.61
40624;BMP280;26325;48.594;11.650;2023-06-04T13:06:04;96636.94;;;32.36
40624;BMP280;26325;48.594;11.650;2023-06-04T13:08:29;96643.41;;;33.56
40624;BMP280;26325;48.594;11.650;2023-06-04T13:10:59;96641.50;;;33.70
40624;BMP280;26325;48.594;11.650;2023-06-04T13:13:25;96627.59;;;32.76
40624;BMP280;26325;48.594;11.650;2023-06-04T13:15:50;96647.91;;;33.04
40624;BMP280;26325;48.594;11.650;2023-06-04T13:18:16;96647.59;;;33.36
40624;BMP280;26325;48.594;11.650;2023-06-04T13:20:42;96650.19;;;34.46
40624;BMP280;26325;48.594;11.650;2023-06-04T13:23:08;96653.50;;;32.58
40624;BMP280;26325;48.594;11.650;2023-06-04T13:25:34;96645.66;;;33.16
40624;BMP280;26325;48.594;11.650;2023-06-04T13:28:04;96632.31;;;33.95
40624;BMP280;26325;48.594;11.650;2023-06-04T13:30:29;96639.16;;;34.13
40624;BMP280;26325;48.594;11.650;2023-06-04T13:32:56;96639.41;;;34.66
40624;BMP280;26325;48.594;11.650;2023-06-04T13:35:24;96653.97;;;34.62
40624;BMP280;26325;48.594;11.650;2023-06-04T13:37:50;96649.25;;;34.89
40624;BMP280;26325;48.594;11.650;2023-06-04T13:40:15;96643.31;;;34.24
40624;BMP280;26325;48.594;11.650;2023-06-04T13:42:41;96645.31;;;34.07
40624;BMP280;26325;48.594;11.650;2023-06-04T13:45:09;96639.53;;;33.26
40624;BMP280;26325;48.594;11.650;2023-06-04T13:47:34;96660.22;;;32.32
40624;BMP280;26325;48.594;11.650;2023-06-04T13:50:01;96646.75;;;32.18
40624;BMP280;26325;48.594;11.650;2023-06-04T13:52:29;96640.88;;;32.59
40624;BMP280;26325;48.594;11.650;2023-06-04T13:54:55;96653.50;;;32.58
40624;BMP280;26325;48.594;11.650;2023-06-04T13:57:21;96632.91;;;32.72
40624;BMP280;26325;48.594;11.650;2023-06-04T13:59:49;96639.53;;;32.22
40624;BMP280;26325;48.594;11.650;2023-06-04T14:02:14;96645.50;;;32.65
40624;BMP280;26325;48.594;11.650;2023-06-04T14:04:40;96629.53;;;31.53
40624;BMP280;26325;48.594;11.650;2023-06-04T14:07:06;96625.41;;;31.23
40624;BMP280;26325;48.594;11.650;2023-06-04T14:09:31;96627.31;;;31.23
40624;BMP280;26325;48.594;11.650;2023-06-04T14:11:58;96628.75;;;30.78
40624;BMP280;26325;48.594;11.650;2023-06-04T14:14:24;96634.31;;;30.34
40624;BMP280;26325;48.594;11.650;2023-06-04T14:16:49;96633.16;;;29.81
40624;BMP280;26325;48.594;11.650;2023-06-04T14:19:15;96629.03;;;29.83